createdAt,value
2023-05-25T00:01:04.768Z,6.00
2023-05-25T00:03:32.625Z,5.64
2023-05-25T00:06:03.910Z,5.90
2023-05-25T00:08:31.131Z,5.88
2023-05-25T00:10:58.662Z,5.77
2023-05-25T00:13:25.864Z,5.67
2023-05-25T00:15:52.969Z,5.86
2023-05-25T00:18:20.040Z,5.68
2023-05-25T00:20:47.673Z,5.56
2023-05-25T00:23:15.002Z,5.63
2023-05-25T00:25:42.588Z,5.60
2023-05-25T00:28:11.496Z,5.54
2023-05-25T00:30:39.055Z,5.53
2023-05-25T00:33:07.108Z,5.46
2023-05-25T00:35:34.192Z,5.25
2023-05-25T00:38:01.257Z,5.48
2023-05-25T00:40:28.353Z,5.34
2023-05-25T00:42:56.204Z,5.06
2023-05-25T00:45:23.626Z,5.32
2023-05-25T00:47:52.308Z,4.89
2023-05-25T00:50:33.503Z,5.25
2023-05-25T00:53:01.168Z,5.14
2023-05-25T00:55:31.539Z,5.22
2023-05-25T00:58:01.049Z,4.87
2023-05-25T01:00:30.583Z,4.63
2023-05-25T01:02:59.736Z,5.00
2023-05-25T01:05:30.808Z,5.03
2023-05-25T01:08:01.876Z,4.78
2023-05-25T01:10:32.736Z,4.86
2023-05-25T01:13:02.088Z,4.92
2023-05-25T01:15:30.977Z,4.97
2023-05-25T01:17:59.233Z,4.91
2023-05-25T01:20:35.679Z,4.86
2023-05-25T01:23:17.506Z,4.86
2023-05-25T01:25:51.456Z,4.59
2023-05-25T01:28:25.342Z,4.82
2023-05-25T01:30:53.706Z,4.76
2023-05-25T01:33:21.563Z,4.55
2023-05-25T01:35:49.072Z,4.63
2023-05-25T01:38:17.709Z,4.55
2023-05-25T01:40:44.794Z,4.75
2023-05-25T01:43:12.263Z,4.63
2023-05-25T01:45:39.324Z,4.72
2023-05-25T01:48:17.557Z,4.72
2023-05-25T01:50:57.994Z,4.63
2023-05-25T01:53:36.105Z,4.62
2023-05-25T01:56:11.442Z,4.62
2023-05-25T01:58:47.174Z,4.61
2023-05-25T02:01:17.006Z,4.09
2023-05-25T02:03:49.066Z,4.49
2023-05-25T02:06:16.742Z,4.37
2023-05-25T02:08:46.716Z,4.57
2023-05-25T02:11:17.217Z,4.66
2023-05-25T02:13:46.191Z,4.51
2023-05-25T02:16:13.361Z,4.45
2023-05-25T02:18:45.835Z,4.51
2023-05-25T02:21:13.068Z,4.43
2023-05-25T02:23:40.377Z,4.46
2023-05-25T02:26:07.565Z,4.36
2023-05-25T02:28:34.725Z,4.40
2023-05-25T02:31:01.974Z,4.09
2023-05-25T02:33:29.108Z,4.24
2023-05-25T02:35:57.754Z,4.09
2023-05-25T02:38:24.838Z,4.22
2023-05-25T02:40:51.921Z,4.22
2023-05-25T02:43:20.940Z,4.09
2023-05-25T02:45:48.016Z,4.21
2023-05-25T02:48:15.292Z,4.16
2023-05-25T02:50:42.454Z,4.10
2023-05-25T02:53:13.374Z,4.05
2023-05-25T02:55:40.528Z,4.15
2023-05-25T02:58:11.193Z,4.16
2023-05-25T03:00:56.781Z,4.11
2023-05-25T03:03:23.881Z,4.09
2023-05-25T03:05:51.568Z,4.01
2023-05-25T03:08:18.870Z,3.93
2023-05-25T03:10:46.030Z,3.92
2023-05-25T03:13:13.100Z,4.02
2023-05-25T03:15:40.360Z,4.01
2023-05-25T03:18:07.844Z,4.05
2023-05-25T03:20:38.198Z,4.07
2023-05-25T03:23:05.544Z,4.08
2023-05-25T03:25:34.121Z,3.92
2023-05-25T03:28:01.599Z,3.92
2023-05-25T03:30:29.659Z,3.89
2023-05-25T03:32:57.267Z,3.96
2023-05-25T03:35:28.472Z,3.92
2023-05-25T03:37:55.550Z,3.66
2023-05-25T03:40:22.795Z,3.76
2023-05-25T03:42:49.934Z,3.92
2023-05-25T03:45:17.124Z,3.92
2023-05-25T03:47:45.530Z,3.86
2023-05-25T03:50:13.025Z,3.95
2023-05-25T03:52:40.117Z,3.81
2023-05-25T03:55:07.424Z,3.96
2023-05-25T03:57:34.493Z,3.97
2023-05-25T04:00:01.906Z,3.78
2023-05-25T04:02:29.056Z,3.50
2023-05-25T04:04:57.117Z,4.08
2023-05-25T04:07:27.390Z,4.00
2023-05-25T04:09:54.470Z,4.01
2023-05-25T04:12:22.074Z,3.80
2023-05-25T04:14:49.157Z,3.92
2023-05-25T04:17:18.945Z,4.00
2023-05-25T04:19:46.406Z,4.00
2023-05-25T04:22:13.477Z,4.10
2023-05-25T04:24:41.338Z,4.03
2023-05-25T04:27:08.534Z,4.15
2023-05-25T04:29:37.127Z,4.14
2023-05-25T04:32:30.145Z,4.51
2023-05-25T04:35:15.843Z,4.50
2023-05-25T04:37:47.070Z,4.67
2023-05-25T04:40:14.640Z,4.38
2023-05-25T04:42:42.725Z,4.85
2023-05-25T04:45:10.507Z,4.73
2023-05-25T04:47:41.138Z,4.73
2023-05-25T04:50:10.934Z,5.27
2023-05-25T04:52:39.012Z,5.31
2023-05-25T04:55:06.607Z,4.92
2023-05-25T04:57:36.962Z,5.26
2023-05-25T05:00:05.944Z,5.44
2023-05-25T05:02:33.337Z,5.55
2023-05-25T05:05:00.470Z,5.53
2023-05-25T05:07:28.981Z,5.71
2023-05-25T05:09:56.302Z,5.80
2023-05-25T05:12:23.619Z,5.90
2023-05-25T05:14:53.073Z,6.02
2023-05-25T05:17:20.542Z,6.29
2023-05-25T05:19:47.894Z,6.48
2023-05-25T05:22:16.128Z,6.56
2023-05-25T05:24:45.511Z,6.33
2023-05-25T05:27:17.163Z,6.66
2023-05-25T05:29:47.930Z,6.79
2023-05-25T05:32:15.704Z,6.99
2023-05-25T05:34:42.860Z,7.03
2023-05-25T05:37:21.099Z,7.06
2023-05-25T05:39:48.188Z,7.18
2023-05-25T05:42:15.562Z,7.44
2023-05-25T05:44:42.690Z,7.85
2023-05-25T05:47:09.945Z,7.93
2023-05-25T05:49:39.238Z,8.09
2023-05-25T05:52:09.022Z,7.98
2023-05-25T05:54:36.606Z,8.38
2023-05-25T05:57:09.412Z,8.19
2023-05-25T05:59:36.594Z,8.82
2023-05-25T06:02:04.313Z,8.85
2023-05-25T06:04:31.567Z,8.96
2023-05-25T06:06:59.191Z,8.94
2023-05-25T06:09:26.574Z,9.00
2023-05-25T06:11:56.017Z,9.18
2023-05-25T06:14:23.153Z,9.54
2023-05-25T06:16:51.153Z,9.07
2023-05-25T06:19:18.575Z,9.56
2023-05-25T06:21:46.088Z,9.82
2023-05-25T06:24:15.211Z,9.95
2023-05-25T06:26:42.261Z,9.88
2023-05-25T06:29:09.325Z,9.99
2023-05-25T06:31:36.474Z,10.37
2023-05-25T06:34:03.662Z,10.31
2023-05-25T06:36:32.131Z,10.66
2023-05-25T06:38:59.857Z,10.73
2023-05-25T06:41:27.770Z,10.83
2023-05-25T06:43:56.458Z,11.13
2023-05-25T06:46:30.394Z,11.26
2023-05-25T06:49:00.530Z,11.46
2023-05-25T06:51:27.986Z,11.30
2023-05-25T06:53:55.710Z,11.30
2023-05-25T06:56:23.484Z,11.54
2023-05-25T06:58:51.025Z,11.94
2023-05-25T07:01:18.086Z,11.67
2023-05-25T07:03:45.503Z,12.18
2023-05-25T07:06:12.932Z,12.29
2023-05-25T07:08:39.989Z,12.32
2023-05-25T07:11:10.482Z,12.50
2023-05-25T07:13:37.557Z,12.43
2023-05-25T07:16:04.692Z,12.24
2023-05-25T07:18:31.750Z,12.31
2023-05-25T07:20:59.318Z,12.49
2023-05-25T07:23:26.379Z,12.53
2023-05-25T07:25:53.439Z,12.57
2023-05-25T07:28:20.461Z,12.87
2023-05-25T07:30:47.520Z,12.67
2023-05-25T07:33:14.602Z,12.82
2023-05-25T07:35:41.822Z,12.84
2023-05-25T07:38:09.157Z,13.11
2023-05-25T07:40:36.579Z,13.25
2023-05-25T07:43:04.479Z,13.06
2023-05-25T07:45:32.750Z,13.04
2023-05-25T07:47:59.805Z,13.10
2023-05-25T07:50:26.987Z,13.22
2023-05-25T07:52:54.018Z,13.39
2023-05-25T07:55:21.249Z,13.51
2023-05-25T07:57:48.381Z,13.74
2023-05-25T08:00:15.845Z,13.88
2023-05-25T08:02:44.127Z,13.74
2023-05-25T08:05:11.431Z,13.50
2023-05-25T08:07:40.053Z,13.87
2023-05-25T08:10:09.284Z,13.91
2023-05-25T08:12:47.865Z,14.23
2023-05-25T08:15:16.805Z,14.33
2023-05-25T08:17:44.514Z,14.28
2023-05-25T08:20:12.379Z,13.75
2023-05-25T08:22:39.700Z,14.10
2023-05-25T08:25:07.968Z,14.21
2023-05-25T08:27:39.188Z,14.53
2023-05-25T08:30:06.921Z,14.57
2023-05-25T08:32:34.261Z,14.55
2023-05-25T08:35:03.569Z,14.17
2023-05-25T08:37:32.288Z,14.35
2023-05-25T08:40:02.107Z,14.16
2023-05-25T08:42:29.632Z,14.23
2023-05-25T08:44:56.877Z,14.65
2023-05-25T08:47:24.257Z,14.81
2023-05-25T08:49:52.830Z,14.84
2023-05-25T08:52:22.937Z,15.03
2023-05-25T08:54:53.641Z,15.18
2023-05-25T08:57:27.403Z,15.68
2023-05-25T09:00:02.831Z,15.94
2023-05-25T09:02:45.103Z,15.52
2023-05-25T09:05:13.735Z,15.96
2023-05-25T09:07:43.020Z,15.97
2023-05-25T09:10:14.995Z,16.19
2023-05-25T09:12:42.843Z,16.33
2023-05-25T09:15:13.306Z,16.60
2023-05-25T09:17:41.317Z,16.66
2023-05-25T09:20:10.762Z,17.20
2023-05-25T09:22:38.362Z,17.11
2023-05-25T09:25:07.948Z,16.81
2023-05-25T09:27:37.319Z,16.41
2023-05-25T09:30:05.802Z,15.82
2023-05-25T09:32:33.075Z,15.82
2023-05-25T09:35:11.715Z,15.99
2023-05-25T09:37:40.765Z,15.98
2023-05-25T09:40:10.702Z,15.81
2023-05-25T09:42:38.549Z,16.32
2023-05-25T09:45:06.808Z,16.29
2023-05-25T09:47:36.628Z,16.37
2023-05-25T09:50:04.095Z,16.65
2023-05-25T09:52:31.419Z,16.18
2023-05-25T09:54:59.238Z,16.53
2023-05-25T09:57:27.177Z,16.49
2023-05-25T09:59:54.234Z,16.77
2023-05-25T10:02:21.696Z,16.50
2023-05-25T10:04:48.835Z,16.75
2023-05-25T10:07:17.254Z,16.84
2023-05-25T10:09:46.382Z,16.77
2023-05-25T10:12:19.295Z,16.85
2023-05-25T10:14:48.573Z,16.94
2023-05-25T10:17:22.827Z,17.03
2023-05-25T10:20:05.295Z,17.12
2023-05-25T10:22:36.756Z,16.97
2023-05-25T10:25:42.623Z,16.81
2023-05-25T10:28:12.604Z,16.88
2023-05-25T10:30:41.314Z,16.66
2023-05-25T10:33:08.753Z,16.63
2023-05-25T10:35:56.248Z,16.76
2023-05-25T10:38:26.805Z,17.05
2023-05-25T10:40:55.069Z,16.84
2023-05-25T10:43:23.503Z,17.11
2023-05-25T10:45:50.623Z,17.13
2023-05-25T10:48:17.807Z,16.89
2023-05-25T10:50:50.678Z,16.41
2023-05-25T10:53:24.020Z,17.10
2023-05-25T10:55:53.756Z,17.45
2023-05-25T10:58:22.884Z,17.37
2023-05-25T11:01:02.261Z,17.57
2023-05-25T11:03:44.888Z,17.79
2023-05-25T11:06:12.278Z,17.63
2023-05-25T11:08:54.928Z,17.56
2023-05-25T11:11:42.776Z,17.74
2023-05-25T11:14:29.654Z,17.90
2023-05-25T11:17:16.420Z,17.81
2023-05-25T11:19:50.996Z,17.46
2023-05-25T11:22:21.155Z,17.37
2023-05-25T11:24:50.054Z,17.79
2023-05-25T11:27:24.830Z,18.03
2023-05-25T11:29:52.802Z,17.64
2023-05-25T11:32:21.290Z,18.01
2023-05-25T11:34:48.800Z,18.03
2023-05-25T11:37:17.253Z,18.06
2023-05-25T11:39:47.687Z,17.70
2023-05-25T11:42:15.188Z,18.21
2023-05-25T11:44:43.404Z,17.80
2023-05-25T11:47:14.331Z,18.01
2023-05-25T11:49:44.142Z,18.18
2023-05-25T11:52:13.002Z,17.89
2023-05-25T11:54:43.391Z,18.27
2023-05-25T11:57:27.341Z,18.32
2023-05-25T11:59:56.186Z,18.12
2023-05-25T12:02:24.258Z,17.83
2023-05-25T12:04:56.956Z,17.79
2023-05-25T12:07:26.083Z,18.07
2023-05-25T12:10:15.049Z,18.40
2023-05-25T12:12:42.980Z,18.97
2023-05-25T12:15:12.128Z,18.74
2023-05-25T12:17:44.082Z,18.36
2023-05-25T12:20:12.884Z,18.08
2023-05-25T12:22:40.709Z,18.08
2023-05-25T12:25:10.273Z,18.06
2023-05-25T12:27:38.120Z,17.97
2023-05-25T12:30:06.200Z,18.22
2023-05-25T12:32:33.421Z,18.00
2023-05-25T12:35:05.281Z,18.36
2023-05-25T12:37:33.290Z,18.32
2023-05-25T12:40:00.628Z,18.29
2023-05-25T12:42:27.839Z,18.36
2023-05-25T12:45:01.633Z,18.49
2023-05-25T12:47:30.241Z,18.45
2023-05-25T12:50:14.747Z,18.34
2023-05-25T12:52:44.191Z,18.44
2023-05-25T12:55:25.990Z,18.17
2023-05-25T12:57:54.711Z,18.35
2023-05-25T13:00:27.503Z,17.56
2023-05-25T13:02:54.888Z,18.27
2023-05-25T13:05:26.397Z,18.42
2023-05-25T13:07:56.386Z,18.30
2023-05-25T13:10:24.463Z,18.51
2023-05-25T13:12:53.491Z,17.70
2023-05-25T13:15:21.893Z,17.87
2023-05-25T13:17:50.746Z,17.82
2023-05-25T13:20:23.488Z,18.02
2023-05-25T13:22:52.378Z,17.96
2023-05-25T13:25:19.735Z,17.85
2023-05-25T13:27:49.474Z,18.50
2023-05-25T13:30:17.130Z,17.58
2023-05-25T13:32:44.550Z,17.89
2023-05-25T13:35:18.353Z,17.98
2023-05-25T13:37:46.263Z,18.08
2023-05-25T13:40:14.710Z,18.15
2023-05-25T13:42:41.823Z,18.07
2023-05-25T13:45:09.518Z,17.96
2023-05-25T13:47:36.895Z,18.00
2023-05-25T13:50:04.602Z,18.23
2023-05-25T13:52:31.690Z,18.12
2023-05-25T13:54:58.716Z,18.41
2023-05-25T13:57:25.930Z,18.56
2023-05-25T13:59:52.986Z,18.23
2023-05-25T14:02:20.127Z,18.60
2023-05-25T14:04:47.277Z,18.49
2023-05-25T14:07:14.319Z,18.38
2023-05-25T14:09:41.535Z,18.21
2023-05-25T14:12:08.681Z,18.04
2023-05-25T14:14:36.780Z,17.95
2023-05-25T14:17:03.994Z,18.18
2023-05-25T14:19:31.292Z,17.91
2023-05-25T14:24:28.415Z,18.18
2023-05-25T14:26:58.257Z,18.60
2023-05-25T14:29:25.438Z,18.39
2023-05-25T14:31:52.820Z,18.27
2023-05-25T14:34:20.058Z,18.20
2023-05-25T14:36:47.085Z,18.22
2023-05-25T14:39:16.464Z,18.13
2023-05-25T14:41:44.448Z,18.86
2023-05-25T14:44:11.565Z,18.59
2023-05-25T14:46:38.746Z,18.77
2023-05-25T14:49:05.809Z,18.73
2023-05-25T14:51:32.883Z,18.86
2023-05-25T14:54:03.354Z,18.88
2023-05-25T14:56:30.600Z,18.17
2023-05-25T14:58:57.643Z,18.77
2023-05-25T15:01:25.579Z,18.63
2023-05-25T15:03:53.028Z,18.44
2023-05-25T15:06:20.395Z,19.27
2023-05-25T15:08:47.443Z,19.42
2023-05-25T15:11:14.493Z,20.27
2023-05-25T15:13:41.599Z,20.53
2023-05-25T15:16:12.472Z,21.57
2023-05-25T15:18:39.642Z,22.27
2023-05-25T15:21:06.740Z,22.77
2023-05-25T15:23:33.851Z,22.64
2023-05-25T15:26:04.750Z,23.48
2023-05-25T15:28:31.918Z,23.16
2023-05-25T15:31:01.720Z,23.63
2023-05-25T15:33:49.539Z,23.76
2023-05-25T15:36:19.034Z,23.75
2023-05-25T15:38:49.076Z,22.87
2023-05-25T15:41:17.399Z,23.67
2023-05-25T15:43:54.240Z,23.88
2023-05-25T15:46:21.354Z,24.43
2023-05-25T15:48:48.414Z,24.03
2023-05-25T15:51:15.718Z,25.37
2023-05-25T15:53:42.822Z,25.11
2023-05-25T15:56:10.012Z,24.33
2023-05-25T15:58:37.036Z,25.81
2023-05-25T16:01:04.355Z,24.89
2023-05-25T16:03:31.721Z,25.99
2023-05-25T16:05:58.839Z,25.00
2023-05-25T16:08:25.865Z,24.51
2023-05-25T16:10:52.903Z,23.48
2023-05-25T16:13:19.971Z,23.60
2023-05-25T16:15:47.232Z,24.97
2023-05-25T16:18:14.613Z,25.84
2023-05-25T16:20:41.711Z,23.63
2023-05-25T16:23:08.785Z,22.26
2023-05-25T16:25:35.903Z,25.04
2023-05-25T16:28:03.068Z,25.74
2023-05-25T16:30:30.355Z,25.53
2023-05-25T16:32:57.439Z,25.16
2023-05-25T16:35:24.494Z,23.97
2023-05-25T16:37:51.533Z,24.63
2023-05-25T16:40:18.562Z,24.56
2023-05-25T16:42:45.748Z,23.86
2023-05-25T16:45:12.932Z,25.11
2023-05-25T16:47:40.002Z,25.70
2023-05-25T16:50:07.983Z,24.44
2023-05-25T16:52:35.640Z,25.20
2023-05-25T16:55:03.264Z,25.21
2023-05-25T16:57:30.530Z,24.19
2023-05-25T16:59:57.601Z,23.46
2023-05-25T17:02:24.997Z,24.70
2023-05-25T17:04:52.105Z,25.13
2023-05-25T17:07:19.177Z,24.40
2023-05-25T17:09:46.233Z,25.14
2023-05-25T17:12:13.296Z,25.70
2023-05-25T17:14:40.430Z,24.29
2023-05-25T17:17:07.528Z,24.74
2023-05-25T17:19:34.751Z,25.52
2023-05-25T17:22:01.786Z,26.07
2023-05-25T17:24:28.863Z,26.09
2023-05-25T17:26:56.039Z,25.14
2023-05-25T17:29:23.126Z,25.55
2023-05-25T17:31:50.388Z,24.92
2023-05-25T17:34:17.618Z,25.27
2023-05-25T17:36:44.809Z,25.15
2023-05-25T17:39:11.871Z,25.30
2023-05-25T17:41:38.968Z,25.15
2023-05-25T17:44:06.132Z,24.88
2023-05-25T17:46:33.185Z,24.71
2023-05-25T17:49:00.510Z,24.52
2023-05-25T17:51:27.577Z,23.32
2023-05-25T17:53:54.628Z,23.99
2023-05-25T17:56:22.190Z,24.20
2023-05-25T17:58:49.350Z,22.49
2023-05-25T18:01:16.827Z,19.63
2023-05-25T18:03:44.121Z,18.84
2023-05-25T18:06:11.259Z,18.07
2023-05-25T18:08:38.271Z,18.31
2023-05-25T18:11:05.641Z,17.47
2023-05-25T18:13:32.820Z,17.23
2023-05-25T18:15:59.929Z,17.04
2023-05-25T18:18:27.182Z,16.92
2023-05-25T18:20:54.255Z,16.81
2023-05-25T18:23:22.374Z,15.93
2023-05-25T18:25:49.547Z,16.03
2023-05-25T18:28:16.747Z,15.89
2023-05-25T18:30:43.910Z,15.98
2023-05-25T18:33:11.111Z,15.93
2023-05-25T18:35:38.680Z,16.15
2023-05-25T18:38:06.586Z,15.89
2023-05-25T18:40:33.698Z,15.74
2023-05-25T18:43:00.849Z,15.33
2023-05-25T18:45:27.910Z,15.38
2023-05-25T18:47:55.059Z,15.17
2023-05-25T18:50:22.137Z,15.40
2023-05-25T18:52:51.273Z,15.31
2023-05-25T18:55:18.999Z,14.92
2023-05-25T18:57:46.687Z,15.07
2023-05-25T19:00:14.412Z,15.07
2023-05-25T19:02:41.785Z,14.73
2023-05-25T19:05:11.466Z,14.53
2023-05-25T19:07:54.675Z,14.46
2023-05-25T19:10:25.350Z,14.80
2023-05-25T19:12:52.476Z,14.40
2023-05-25T19:15:19.601Z,14.49
2023-05-25T19:17:47.043Z,14.41
2023-05-25T19:20:14.505Z,14.09
2023-05-25T19:22:42.516Z,13.84
2023-05-25T19:25:09.745Z,13.76
2023-05-25T19:27:36.844Z,13.81
2023-05-25T19:30:04.613Z,13.66
2023-05-25T19:32:31.689Z,13.70
2023-05-25T19:34:58.798Z,13.62
2023-05-25T19:37:26.477Z,13.63
2023-05-25T19:39:53.533Z,13.08
2023-05-25T19:42:20.770Z,13.09
2023-05-25T19:44:47.803Z,13.09
2023-05-25T19:47:14.926Z,13.29
2023-05-25T19:49:42.745Z,13.22
2023-05-25T19:52:09.815Z,13.05
2023-05-25T19:54:38.583Z,13.15
2023-05-25T19:57:06.636Z,13.12
2023-05-25T19:59:33.816Z,12.91
2023-05-25T20:02:00.921Z,13.08
2023-05-25T20:04:28.005Z,12.82
2023-05-25T20:06:55.102Z,12.87
2023-05-25T20:09:30.465Z,12.53
2023-05-25T20:11:58.516Z,12.56
2023-05-25T20:14:26.276Z,12.86
2023-05-25T20:16:55.682Z,12.75
2023-05-25T20:19:25.534Z,12.41
2023-05-25T20:21:53.318Z,12.64
2023-05-25T20:24:21.879Z,12.59
2023-05-25T20:26:49.084Z,12.38
2023-05-25T20:29:16.120Z,12.42
2023-05-25T20:31:43.175Z,12.33
2023-05-25T20:34:10.235Z,12.09
2023-05-25T20:36:38.061Z,12.16
2023-05-25T20:39:05.504Z,12.29
2023-05-25T20:41:32.582Z,12.15
2023-05-25T20:43:59.677Z,11.92
2023-05-25T20:46:26.734Z,11.97
2023-05-25T20:48:54.112Z,11.98
2023-05-25T20:51:21.775Z,12.05
2023-05-25T20:53:48.905Z,11.81
2023-05-25T20:56:16.055Z,11.87
2023-05-25T20:58:43.365Z,11.94
2023-05-25T21:01:10.521Z,11.82
2023-05-25T21:03:37.833Z,11.67
2023-05-25T21:06:04.995Z,11.50
2023-05-25T21:08:33.235Z,11.65
2023-05-25T21:11:00.273Z,11.46
2023-05-25T21:13:27.457Z,11.32
2023-05-25T21:15:54.529Z,11.49
2023-05-25T21:18:21.618Z,11.58
2023-05-25T21:20:49.059Z,11.36
2023-05-25T21:23:16.230Z,11.55
2023-05-25T21:25:43.507Z,11.47
2023-05-25T21:28:10.963Z,11.33
2023-05-25T21:30:38.004Z,10.96
2023-05-25T21:33:13.447Z,11.22
2023-05-25T21:35:40.648Z,11.11
2023-05-25T21:38:08.694Z,11.13
2023-05-25T21:40:38.622Z,10.93
2023-05-25T21:43:06.483Z,10.81
2023-05-25T21:45:33.557Z,10.79
2023-05-25T21:48:00.673Z,10.66
2023-05-25T21:50:28.472Z,10.72
2023-05-25T21:52:55.534Z,10.29
2023-05-25T21:55:22.759Z,10.59
2023-05-25T21:57:49.770Z,10.56
2023-05-25T22:00:17.184Z,10.50
2023-05-25T22:02:44.383Z,10.34
2023-05-25T22:05:11.509Z,10.23
2023-05-25T22:07:38.615Z,10.05
2023-05-25T22:10:06.717Z,10.14
2023-05-25T22:12:33.751Z,9.97
2023-05-25T22:15:00.871Z,10.35
2023-05-25T22:17:28.001Z,10.30
2023-05-25T22:20:06.463Z,10.05
2023-05-25T22:22:34.977Z,10.14
2023-05-25T22:25:02.005Z,10.13
2023-05-25T22:27:29.082Z,9.77
2023-05-25T22:29:56.105Z,9.95
2023-05-25T22:32:23.411Z,10.09
2023-05-25T22:34:50.554Z,9.83
2023-05-25T22:37:17.746Z,9.46
2023-05-25T22:39:44.795Z,9.65
2023-05-25T22:42:11.978Z,9.57
2023-05-25T22:44:39.064Z,9.68
2023-05-25T22:47:06.522Z,9.63
2023-05-25T22:49:41.184Z,9.49
2023-05-25T22:52:11.322Z,9.53
2023-05-25T22:54:38.526Z,9.47
2023-05-25T22:57:06.328Z,9.31
2023-05-25T22:59:33.434Z,9.27
2023-05-25T23:02:00.688Z,9.41
2023-05-25T23:04:27.847Z,9.28
2023-05-25T23:06:54.909Z,8.94
2023-05-25T23:09:21.947Z,8.83
2023-05-25T23:11:49.073Z,9.08
2023-05-25T23:14:16.104Z,9.26
2023-05-25T23:16:44.305Z,9.20
2023-05-25T23:19:11.475Z,9.17
2023-05-25T23:21:38.548Z,8.97
2023-05-25T23:24:06.059Z,8.84
2023-05-25T23:26:33.117Z,8.80
2023-05-25T23:29:00.200Z,8.90
2023-05-25T23:31:27.412Z,8.69
2023-05-25T23:33:54.521Z,8.79
2023-05-25T23:36:21.608Z,8.79
2023-05-25T23:38:48.632Z,8.80
2023-05-25T23:41:16.483Z,8.62
2023-05-25T23:43:43.585Z,8.48
2023-05-25T23:46:10.719Z,8.24
2023-05-25T23:48:37.808Z,8.61
2023-05-25T23:51:07.381Z,8.45
2023-05-25T23:53:34.393Z,8.30
2023-05-25T23:56:01.458Z,8.55
2023-05-25T23:58:28.586Z,8.39
